Terminal Aerodrome Forecast
Issued by NWS

Home | Current Version | Previous Version | Text Only | Print | Product List | Glossary On
Versions: 1 2 3 4 5 6 7 8 9 10 11 12 13 14 15 16 17 18 19 20 21 22 23 24
000
FTUS45 KSLC 301120
TAFSGU
TAF
KSGU 301120Z 3012/0112 13006KT P6SM -SHRA BKN045 OVC070
     FM301800 07010KT P6SM VCSH BKN060
     FM010100 06010KT P6SM SCT080
      AMD LTD TO CLD VIS AND WIND=

USA.gov is the U.S. government's official web portal to all federal, state and local government web resources and services.